Latest Weather Observations for Inverell RS

IDN60801

Issued at 7:04 pm EST Tuesday 7 July 2015 (issued every 30 minutes, with the page automatically refreshed every 10 minutes)

About weather observations | Map of weather stations | Latest weather observations for NSW | Other Formats
Station Details ID: 056018 Name: INVERELL RESEARCH CENTRE Lat: -29.78 Lon: 151.08 Height: 664.0 m
Data from the previous 72 hours. | See also: Recent months at Inverell RS
Date/Time
EST
Temp
°C
App
Temp
°C
Dew
Point
Rel
Hum
%
Delta-T
°C
Wind Press
QNH
hPa
Press
MSL
hPa
Rain
since 9 am
mm
Dir
 
Spd
km/h
Gust
km/h
Spd
kts
Gust
kts
07/07:00pm 8.2 4.3 1.1 61 3.0 SSW 11 19 6 10 1021.9 - 0.0
07/06:30pm 8.4 4.9 1.0 59 3.1 SSW 9 15 5 8 1021.8 - 0.0
07/06:00pm 8.7 4.8 0.9 58 3.3 SW 11 15 6 8 1021.4 1021.9 0.0
07/05:30pm 9.4 5.8 0.6 54 3.7 SW 9 11 5 6 1021.0 - 0.0
07/05:00pm 10.4 6.3 -0.1 48 4.4 S 11 17 6 9 1020.6 - 0.0
07/04:30pm 11.5 7.6 -1.4 40 5.3 S 9 15 5 8 1020.2 - 0.0
07/04:00pm 12.4 7.6 -2.8 34 6.1 S 13 22 7 12 1020.0 - 0.0
07/03:30pm 13.1 7.5 -2.7 33 6.4 SSE 17 30 9 16 1019.7 - 0.0
07/03:00pm 13.3 9.1 -1.2 36 6.1 S 11 28 6 15 1019.4 1020.0 0.0
07/02:30pm 13.8 10.0 -0.7 37 6.2 SSW 9 19 5 10 1019.3 - 0.0
07/02:00pm 14.1 9.6 -0.2 37 6.2 S 13 30 7 16 1019.2 - 0.0
07/01:30pm 13.8 9.3 -0.1 38 6.0 S 13 24 7 13 1019.2 - 0.0
07/01:00pm 13.1 8.2 -0.2 40 5.7 SSE 15 26 8 14 1019.2 - 0.0
07/12:30pm 13.2 7.6 0.0 40 5.7 SSE 19 28 10 15 1019.3 - 0.0
07/12:00pm 12.7 7.0 -0.5 40 5.6 SSE 19 30 10 16 1019.6 1020.3 0.0
07/11:30am 12.2 6.4 -0.3 42 5.3 SSE 20 35 11 19 1020.0 - 0.0
07/11:00am 11.6 5.4 -0.6 43 5.1 SSE 22 39 12 21 1020.2 - 0.0
07/10:30am 11.3 5.6 0.3 46 4.7 S 20 33 11 18 1020.4 - 0.0
07/10:00am 9.2 5.0 1.5 58 3.3 SSW 13 19 7 10 1020.8 - 0.0
07/09:30am 8.6 3.8 0.4 56 3.4 S 15 24 8 13 1020.7 - 0.0
07/09:00am 7.4 3.9 1.2 65 2.6 S 9 13 5 7 1020.8 1021.4 0.0
07/08:30am 6.1 2.5 0.7 68 2.2 S 9 15 5 8 1020.4 - 0.0
07/08:00am 4.8 0.8 0.3 72 1.8 S 11 15 6 8 1020.2 - 0.0
07/07:30am 4.1 -0.4 0.0 74 1.6 S 13 19 7 10 1019.9 - 0.0
07/07:00am 2.4 -1.3 -0.2 83 1.0 SW 9 13 5 7 1019.6 - 0.0
07/06:30am 2.2 -1.6 -0.4 83 1.0 SW 9 13 5 7 1019.2 - 0.0
07/06:00am 2.1 -1.6 -0.3 84 0.9 S 9 13 5 7 1018.7 1019.3 0.0
07/05:30am 2.5 -1.6 -0.1 83 1.0 S 11 17 6 9 1018.4 - 0.0
07/05:00am 2.0 -1.7 0.2 88 0.7 S 9 11 5 6 1018.4 - 0.0
07/04:30am 1.7 -1.7 -0.4 86 0.8 S 7 11 4 6 1018.3 - 0.0
07/04:00am 2.7 -1.0 0.1 83 1.0 SSW 9 11 5 6 1018.3 - 0.0
07/03:30am 3.1 -0.4 1.1 87 0.8 SW 9 11 5 6 1018.3 - 0.0
07/03:00am 3.5 -0.4 1.0 84 1.0 SW 11 15 6 8 1018.2 1018.8 0.0
07/02:30am 4.7 0.7 0.5 74 1.7 SSW 11 15 6 8 1018.2 - 0.0
07/02:00am 4.7 0.8 1.0 77 1.5 SSW 11 15 6 8 1018.1 - 0.0
07/01:30am 5.2 2.0 0.8 73 1.8 SSW 7 11 4 6 1018.0 - 0.0
07/01:00am 5.1 1.6 1.2 76 1.6 SW 9 13 5 7 1018.1 - 0.0
07/12:30am 5.1 1.5 0.9 74 1.7 SW 9 11 5 6 1018.2 - 0.0
07/12:00am 5.4 2.4 1.8 77 1.5 SSW 7 15 4 8 1018.4 1019.0 0.0
 
Date/Time
EST
Temp
°C
App
Temp
°C
Dew
Point
Rel
Hum
%
Delta-T
°C
Wind Press
QNH
hPa
Press
MSL
hPa
Rain
since 9 am
mm
Dir
 
Spd
km/h
Gust
km/h
Spd
kts
Gust
kts
06/11:30pm 6.6 3.6 1.9 72 2.0 S 7 11 4 6 1018.6 - 0.0
06/11:00pm 7.0 4.5 1.8 69 2.2 SW 4 9 2 5 1018.6 - 0.0
06/10:30pm 6.5 4.3 1.2 69 2.2 WNW 2 11 1 6 1018.7 - 0.0
06/10:00pm 7.5 4.6 1.3 65 2.6 NW 6 7 3 4 1018.7 - 0.0
06/09:30pm 6.2 3.4 1.9 74 1.8 N 6 9 3 5 1018.8 - 0.0
06/09:00pm 7.3 5.3 2.4 71 2.1 W 2 7 1 4 1018.8 1019.4 0.0
06/08:30pm 7.8 5.9 3.0 71 2.1 W 2 7 1 4 1018.4 - 0.0
06/08:00pm 7.1 5.6 3.0 75 1.8 CALM 0 0 0 0 1018.2 - 0.0
06/07:30pm 8.8 6.1 2.9 66 2.6 WNW 6 7 3 4 1018.2 - 0.0
06/07:00pm 8.0 5.7 2.7 69 2.3 NW 4 7 2 4 1018.2 - 0.0
06/06:30pm 9.4 7.8 2.6 62 3.0 CALM 0 2 0 1 1018.1 - 0.0
06/06:00pm 9.5 6.8 2.7 62 3.0 WNW 6 7 3 4 1017.8 1018.3 0.0
06/05:30pm 9.8 6.9 2.8 61 3.1 W 7 9 4 5 1017.7 - 0.0
06/05:00pm 12.3 9.4 2.6 51 4.4 W 7 11 4 6 1017.4 - 0.0
06/04:30pm 14.1 10.8 2.3 45 5.4 WNW 9 15 5 8 1017.0 - 0.0
06/04:00pm 14.7 10.1 1.4 40 6.0 WNW 15 24 8 13 1016.9 - 0.0
06/03:30pm 15.0 10.3 1.2 39 6.2 WNW 15 26 8 14 1016.7 - 0.0
06/03:00pm 15.3 10.4 2.0 40 6.1 WNW 17 35 9 19 1016.7 1017.2 0.0
06/02:30pm 15.5 11.4 2.3 41 6.1 W 13 22 7 12 1016.9 - 0.0
06/02:00pm 15.9 11.4 2.3 40 6.3 W 15 26 8 14 1017.0 - 0.0
06/01:30pm 15.7 10.4 2.0 39 6.3 W 19 30 10 16 1017.0 - 0.0
06/01:00pm 16.0 10.7 1.6 37 6.6 WNW 19 33 10 18 1017.2 - 0.0
06/12:30pm 16.0 11.4 3.6 43 5.9 NW 17 26 9 14 1017.8 - 0.0
06/12:00pm 15.3 11.2 2.3 41 6.0 W 13 20 7 11 1018.5 1019.1 0.0
06/11:30am 15.1 10.3 2.6 43 5.8 W 17 26 9 14 1019.2 - 0.0
06/11:00am 15.3 12.2 3.4 45 5.6 WNW 9 17 5 9 1019.5 - 0.0
06/10:30am 13.0 10.0 4.1 54 4.2 NNE 9 11 5 6 1019.7 - 0.0
06/10:00am 11.7 8.9 5.0 63 3.2 N 9 15 5 8 1020.1 - 0.0
06/09:30am 10.8 8.3 4.6 65 2.9 NE 7 9 4 5 1020.4 - 0.0
06/09:00am 9.1 7.9 4.8 74 2.0 CALM 0 4 0 2 1020.3 1020.9 0.0
06/08:30am 6.9 5.6 4.2 83 1.2 CALM 0 0 0 0 1020.0 - 0.0
06/08:00am 5.6 4.2 3.5 86 0.9 CALM 0 0 0 0 1019.9 - 0.0
06/07:30am 4.0 2.5 3.1 94 0.4 CALM 0 0 0 0 1020.0 - 0.0
06/07:00am 2.8 1.1 2.1 95 0.3 CALM 0 0 0 0 1019.8 - 0.0
06/06:30am 2.6 0.9 1.9 95 0.3 CALM 0 0 0 0 1019.6 - 0.0
06/06:00am 2.7 1.1 2.2 96 0.2 CALM 0 0 0 0 1019.5 1020.1 0.0
06/05:30am 3.8 1.9 2.6 92 0.5 SE 2 6 1 3 1019.4 - 0.0
06/05:00am 3.7 0.7 2.3 91 0.6 SSE 7 9 4 5 1019.3 - 0.0
06/04:30am 3.4 0.1 2.2 92 0.5 SSE 9 9 5 5 1019.5 - 0.0
06/04:00am 3.6 1.6 2.1 90 0.6 SSE 2 7 1 4 1019.6 - 0.0
06/03:30am 4.4 2.8 2.7 89 0.7 CALM 0 0 0 0 1019.7 - 0.0
06/03:00am 4.9 3.4 3.0 87 0.8 CALM 0 0 0 0 1019.8 1020.4 0.0
06/02:30am 5.0 2.3 2.6 84 1.0 SE 6 7 3 4 1019.9 - 0.0
06/02:00am 4.1 1.2 2.4 89 0.7 SSE 7 7 4 4 1020.1 - 0.0
06/01:30am 4.1 1.4 2.4 89 0.7 SSE 6 7 3 4 1020.4 - 0.0
06/01:00am 4.9 2.0 2.8 86 0.9 SSE 7 7 4 4 1020.6 - 0.0
06/12:30am 5.7 4.2 2.9 82 1.2 CALM 0 0 0 0 1020.7 - 0.0
06/12:00am 6.2 4.7 3.2 81 1.3 CALM 0 0 0 0 1020.8 1021.4 0.0
 
Date/Time
EST
Temp
°C
App
Temp
°C
Dew
Point
Rel
Hum
%
Delta-T
°C
Wind Press
QNH
hPa
Press
MSL
hPa
Rain
since 9 am
mm
Dir
 
Spd
km/h
Gust
km/h
Spd
kts
Gust
kts
05/11:30pm 6.8 4.9 3.1 77 1.6 SSE 2 7 1 4 1020.8 - 0.0
05/11:00pm 6.7 3.9 3.0 77 1.6 SSE 7 11 4 6 1020.8 - 0.0
05/10:30pm 6.3 3.5 3.3 81 1.3 SE 7 9 4 5 1020.8 - 0.0
05/10:00pm 7.2 4.4 3.3 76 1.7 SSE 7 9 4 5 1021.0 - 0.0
05/09:30pm 7.1 4.4 3.5 78 1.6 SE 7 9 4 5 1021.2 - 0.0
05/09:00pm 7.5 6.1 3.7 77 1.7 CALM 0 0 0 0 1021.3 1021.9 0.0
05/08:30pm 7.6 6.3 4.0 78 1.6 CALM 0 6 0 3 1021.3 - 0.0
05/08:00pm 8.2 6.9 4.0 75 1.9 CALM 0 4 0 2 1021.2 - 0.0
05/07:30pm 11.2 8.2 4.1 61 3.3 WSW 9 11 5 6 1021.0 - 0.0
05/07:00pm 11.7 8.7 3.9 59 3.6 WSW 9 11 5 6 1021.1 - 0.0
05/06:30pm 11.9 8.9 3.9 58 3.7 W 9 11 5 6 1020.7 - 0.0
05/06:00pm 11.8 8.7 3.8 58 3.7 W 9 9 5 5 1020.4 1021.0 0.0
05/05:30pm 10.8 8.1 3.8 62 3.2 W 7 9 4 5 1020.0 - 0.0
05/05:00pm 12.9 10.3 4.2 55 4.1 W 7 9 4 5 1020.1 - 0.0
05/04:30pm 15.0 11.8 3.3 45 5.5 WNW 9 15 5 8 1020.3 - 0.0
05/04:00pm 15.6 11.6 3.0 43 5.9 NW 13 19 7 10 1020.0 - 0.0
05/03:30pm 15.7 11.9 2.0 39 6.3 WNW 11 19 6 10 1020.1 - 0.0
05/03:00pm 16.2 12.5 2.5 39 6.4 WNW 11 17 6 9 1020.2 1020.8 0.0
05/02:30pm 16.6 12.5 2.5 38 6.6 WNW 13 20 7 11 1020.4 - 0.0
05/02:00pm 16.3 12.5 1.7 37 6.7 WNW 11 20 6 11 1020.7 - 0.0
05/01:30pm 16.5 11.9 1.7 37 6.8 NNW 15 22 8 12 1020.8 - 0.0
05/01:00pm 16.1 11.9 1.4 37 6.7 NW 13 24 7 13 1021.1 - 0.0
05/12:30pm 17.0 12.6 2.5 37 6.8 NNW 15 28 8 15 1021.4 - 0.0
05/12:00pm 15.4 12.0 4.1 47 5.4 NNW 11 20 6 11 1022.0 1022.8 0.0
05/11:30am 14.5 11.6 4.5 51 4.8 N 9 15 5 8 1022.5 - 0.0
05/11:00am 13.9 10.6 4.7 54 4.4 NNE 11 17 6 9 1022.9 - 0.0
05/10:30am 13.3 10.5 5.0 57 4.0 N 9 11 5 6 1023.3 - 0.0
05/10:00am 12.3 9.7 4.2 57 3.8 NNE 7 11 4 6 1023.3 - 0.0
05/09:30am 11.0 9.0 4.3 63 3.1 NE 4 9 2 5 1023.5 - 0.0
05/09:00am 9.4 7.2 5.3 75 1.9 ENE 6 9 3 5 1023.2 1023.9 0.0
05/08:30am 7.1 5.3 3.2 76 1.7 ESE 2 7 1 4 1023.0 - 0.0
05/08:00am 5.5 2.7 2.9 83 1.1 SSE 7 9 4 5 1023.0 - 0.0
05/07:30am 3.7 0.4 2.2 90 0.6 SSE 9 11 5 6 1022.9 - 0.0
05/07:00am 3.1 1.1 2.1 93 0.4 SSE 2 7 1 4 1022.8 - 0.0
05/06:30am 2.7 1.0 1.7 93 0.4 CALM 0 0 0 0 1022.6 - 0.0
05/06:00am 3.0 1.3 1.8 92 0.5 CALM 0 0 0 0 1022.4 1023.0 0.0
05/05:30am 2.8 0.8 2.3 96 0.2 S 2 7 1 4 1022.2 - 0.0
05/05:00am 4.0 1.1 2.8 92 0.5 S 7 9 4 5 1022.0 - 0.0
05/04:30am 3.9 1.0 2.5 91 0.6 S 7 9 4 5 1022.2 - 0.0
05/04:00am 4.5 2.9 2.6 87 0.8 CALM 0 7 0 4 1022.2 - 0.0
05/03:30am 4.4 2.8 2.5 87 0.8 CALM 0 6 0 3 1022.0 - 0.0
05/03:00am 4.6 2.7 2.7 87 0.8 SSE 2 7 1 4 1022.2 1022.8 0.0
05/02:30am 4.0 1.7 2.6 91 0.6 SSE 4 7 2 4 1022.2 - 0.0
05/02:00am 4.2 0.9 2.3 87 0.8 S 9 11 5 6 1022.4 - 0.0
05/01:30am 4.1 2.5 2.2 87 0.8 CALM 0 0 0 0 1022.5 - 0.0
05/01:00am 5.2 3.6 2.6 83 1.1 CALM 0 0 0 0 1022.7 - 0.0
05/12:30am 5.2 2.3 2.6 83 1.1 SSE 7 9 4 5 1022.8 - 0.0
05/12:00am 6.1 3.8 2.8 79 1.4 SSE 4 7 2 4 1022.7 1023.3 0.0
 
Date/Time
EST
Temp
°C
App
Temp
°C
Dew
Point
Rel
Hum
%
Delta-T
°C
Wind Press
QNH
hPa
Press
MSL
hPa
Rain
since 9 am
mm
Dir
 
Spd
km/h
Gust
km/h
Spd
kts
Gust
kts
04/11:30pm 6.2 3.5 2.4 76 1.6 SSE 6 7 3 4 1022.9 - 0.0
04/11:00pm 6.2 3.5 2.7 78 1.5 SSE 6 7 3 4 1023.0 - 0.0
04/10:30pm 5.8 2.9 2.5 79 1.4 SSE 7 9 4 5 1022.9 - 0.0
04/10:00pm 5.2 2.5 2.6 83 1.1 SSE 6 7 3 4 1022.8 - 0.0
04/09:30pm 5.7 4.1 2.6 80 1.3 CALM 0 0 0 0 1023.0 - 0.0
04/09:00pm 5.7 4.1 2.4 79 1.4 CALM 0 0 0 0 1022.9 1023.5 0.0
04/08:30pm 6.4 4.9 2.9 78 1.5 CALM 0 6 0 3 1022.8 - 0.0
04/08:00pm 7.1 4.3 3.0 75 1.8 W 7 9 4 5 1022.8 - 0.0
04/07:30pm 9.1 6.3 3.0 65 2.7 W 7 9 4 5 1022.8 - 0.0

Other Formats:

Comma delimited format used in spreadsheet applications
http://www.bom.gov.au/fwo/IDN60801/IDN60801.94541.axf

JavaScript Object Notation format (JSON) in row-major order
http://www.bom.gov.au/fwo/IDN60801/IDN60801.94541.json